Time;durP1;ratioP1;P1;durP2;ratioP2;P2;SDS_P1;SDS_P2;PMS_P1;PMS_P2;Temp;Humidity;BMP_temperature;BMP_pressure;BME280_temperature;BME280_humidity;BME280_pressure;Samples;Min_cycle;Max_cycle;Signal;HPM_P1;HPM_P2
2021/01/27 00:01:25;;;;;;;5.53;2.57;;;;;;;-1.71;82.11;100711.56;5054008;28;20195;-72
2021/01/27 00:03:50;;;;;;;4.03;2.53;;;;;;;-1.69;82.04;100704.59;5055757;28;20452;-70
2021/01/27 00:06:16;;;;;;;6.20;2.33;;;;;;;-1.65;82.38;100708.91;5055136;28;20179;-70
2021/01/27 00:08:41;;;;;;;5.27;2.30;;;;;;;-1.58;82.08;100700.16;5055252;28;20176;-71
2021/01/27 00:11:06;;;;;;;9.13;3.30;;;;;;;-1.60;82.01;100700.16;5055378;28;20203;-70
2021/01/27 00:13:31;;;;;;;9.10;2.57;;;;;;;-1.63;82.29;100708.03;5053336;28;20229;-70
2021/01/27 00:15:57;;;;;;;3.93;2.17;;;;;;;-1.59;82.48;100706.28;5053243;28;20226;-70
2021/01/27 00:18:22;;;;;;;4.40;2.30;;;;;;;-1.52;82.52;100715.81;5054439;28;20207;-70
2021/01/27 00:20:47;;;;;;;4.93;2.33;;;;;;;-1.47;82.45;100715.81;5053161;28;20552;-69
2021/01/27 00:23:13;;;;;;;4.20;2.20;;;;;;;-1.48;82.24;100712.34;5055273;28;20184;-73
2021/01/27 00:25:38;;;;;;;4.57;2.13;;;;;;;-1.45;82.47;100707.06;5053163;28;20178;-72
2021/01/27 00:28:06;;;;;;;5.63;2.33;;;;;;;-1.47;82.73;100708.84;5054868;28;20254;-72
2021/01/27 00:30:37;;;;;;;4.10;2.37;;;;;;;-1.41;82.59;100713.16;5037892;28;20730;-72
2021/01/27 00:33:03;;;;;;;5.97;2.40;;;;;;;-1.34;82.61;100720.09;5037222;28;20171;-72
2021/01/27 00:35:36;;;;;;;6.60;2.70;;;;;;;-1.26;82.70;100715.66;5053181;28;20199;-74
2021/01/27 00:38:16;;;;;;;4.23;2.10;;;;;;;-1.25;81.95;100712.16;5053421;28;20176;-73
2021/01/27 00:40:42;;;;;;;5.07;2.30;;;;;;;-1.21;82.04;100723.50;5053262;28;20263;-72
2021/01/27 00:43:07;;;;;;;5.10;2.10;;;;;;;-1.27;82.06;100712.19;5057975;28;20206;-72
2021/01/27 00:45:33;;;;;;;3.53;1.97;;;;;;;-1.31;82.49;100710.47;5036928;28;20183;-72
2021/01/27 00:47:58;;;;;;;6.83;2.90;;;;;;;-1.26;82.36;100715.66;5053842;28;20179;-72
2021/01/27 00:50:23;;;;;;;5.53;2.27;;;;;;;-1.19;82.38;100721.72;5053408;28;20667;-72
2021/01/27 00:52:49;;;;;;;4.00;2.10;;;;;;;-1.20;82.10;100705.16;5053687;28;20238;-72
2021/01/27 00:55:17;;;;;;;4.10;1.83;;;;;;;-1.19;82.06;100712.13;5053080;28;20651;-71
2021/01/27 00:57:42;;;;;;;8.87;2.60;;;;;;;-1.18;81.88;100703.38;5053085;28;20181;-71
2021/01/27 01:00:19;;;;;;;7.07;2.43;;;;;;;-1.14;82.14;100722.56;5053663;28;20187;-70
2021/01/27 01:02:45;;;;;;;3.97;2.10;;;;;;;-1.13;82.03;100712.06;5053574;28;20167;-71
2021/01/27 01:05:13;;;;;;;8.13;2.47;;;;;;;-1.07;82.31;100719.91;5054302;28;20226;-71
2021/01/27 01:07:38;;;;;;;4.03;1.83;;;;;;;-1.00;81.53;100716.38;5053629;28;20179;-71
2021/01/27 01:10:07;;;;;;;7.47;2.57;;;;;;;-0.95;81.69;100719.81;5053531;28;20274;-71
2021/01/27 01:12:33;;;;;;;4.33;2.13;;;;;;;-0.88;81.21;100707.53;5053835;28;20180;-70
2021/01/27 01:14:58;;;;;;;6.63;2.50;;;;;;;-0.90;80.97;100711.03;5054480;28;20176;-70
2021/01/27 01:17:23;;;;;;;10.23;3.03;;;;;;;-0.88;81.44;100720.63;5053654;28;20199;-70
2021/01/27 01:19:48;;;;;;;4.80;1.90;;;;;;;-0.89;81.37;100711.03;5052467;28;20171;-71
2021/01/27 01:22:14;;;;;;;4.07;2.20;;;;;;;-0.83;81.37;100707.50;5052372;28;20218;-71
2021/01/27 01:24:39;;;;;;;5.27;2.20;;;;;;;-0.86;81.43;100704.91;5053844;28;20179;-71
2021/01/27 01:27:05;;;;;;;7.23;2.27;;;;;;;-0.85;81.23;100706.63;5053855;28;20167;-71
2021/01/27 01:29:30;;;;;;;5.87;1.80;;;;;;;-0.85;81.33;100709.25;5052472;28;20172;-71
2021/01/27 01:31:55;;;;;;;8.77;2.77;;;;;;;-0.87;81.16;100708.41;5052301;28;20199;-72
2021/01/27 01:34:22;;;;;;;7.23;1.90;;;;;;;-0.95;81.26;100709.34;5053989;28;20199;-71
2021/01/27 01:36:47;;;;;;;9.07;2.47;;;;;;;-0.92;81.69;100715.44;5053770;28;20278;-71
2021/01/27 01:39:12;;;;;;;3.47;1.97;;;;;;;-0.83;81.42;100710.09;5053964;28;20667;-71
2021/01/27 01:41:38;;;;;;;8.83;2.47;;;;;;;-0.77;81.11;100710.91;5053480;28;20329;-71
2021/01/27 01:44:03;;;;;;;6.57;2.13;;;;;;;-0.74;81.02;100707.44;5053846;28;20179;-70
2021/01/27 01:46:29;;;;;;;5.80;1.80;;;;;;;-0.79;81.17;100714.44;5053437;28;20176;-70
2021/01/27 01:49:05;;;;;;;7.53;2.13;;;;;;;-0.75;81.04;100714.41;5056008;28;20186;-71
2021/01/27 01:51:46;;;;;;;6.70;1.90;;;;;;;-0.67;80.56;100711.72;5056890;28;20744;-70
2021/01/27 01:54:18;;;;;;;7.00;2.13;;;;;;;-0.67;80.64;100709.13;5057964;28;20163;-71
2021/01/27 01:56:48;;;;;;;3.47;1.67;;;;;;;-0.72;80.38;100703.91;5041581;28;20544;-72
2021/01/27 01:59:14;;;;;;;8.67;1.87;;;;;;;-0.72;80.59;100710.91;5056265;28;20160;-71
2021/01/27 02:01:42;;;;;;;4.40;1.93;;;;;;;-0.73;80.49;100703.94;5056264;28;20196;-71
2021/01/27 02:04:08;;;;;;;3.27;1.60;;;;;;;-0.76;80.41;100696.06;5060620;28;20245;-71
2021/01/27 02:06:33;;;;;;;5.33;1.60;;;;;;;-0.79;80.80;100699.59;5041896;28;20172;-72
2021/01/27 02:08:59;;;;;;;6.70;2.10;;;;;;;-0.81;80.71;100695.25;5055643;28;20183;-71
2021/01/27 02:11:37;;;;;;;3.23;1.80;;;;;;;-0.83;81.23;100702.25;5057104;28;20230;-71
2021/01/27 02:14:27;;;;;;;2.57;1.43;;;;;;;-0.83;80.79;100697.00;5057051;28;20162;-71
2021/01/27 02:16:58;;;;;;;4.70;1.93;;;;;;;-0.89;80.69;100695.31;5056104;28;20202;-70
2021/01/27 02:19:46;;;;;;;5.40;1.90;;;;;;;-0.96;81.49;100694.50;5057322;28;20222;-71
2021/01/27 02:22:15;;;;;;;3.77;1.80;;;;;;;-0.96;81.25;100691.88;5056846;28;20618;-71
2021/01/27 02:25:03;;;;;;;10.47;2.10;;;;;;;-1.00;81.29;100691.91;5057364;28;20229;-71
2021/01/27 02:27:37;;;;;;;6.53;1.80;;;;;;;-1.04;81.36;100691.06;5055666;28;20218;-71
2021/01/27 02:30:39;;;;;;;6.43;1.90;;;;;;;-1.07;81.33;100696.34;5055333;28;20168;-71
2021/01/27 02:33:30;;;;;;;4.43;1.70;;;;;;;-1.09;81.45;100695.50;5056894;28;20179;-71
2021/01/27 02:36:30;;;;;;;5.47;1.87;;;;;;;-1.10;81.56;100699.00;5055464;28;20206;-71
2021/01/27 02:39:10;;;;;;;6.50;1.83;;;;;;;-1.07;81.56;100698.97;5055496;28;20541;-71
2021/01/27 02:42:00;;;;;;;11.90;2.40;;;;;;;-1.08;81.73;100702.47;5038771;28;20298;-71
2021/01/27 02:44:34;;;;;;;3.63;1.87;;;;;;;-1.01;81.34;100696.28;5056093;28;20536;-71
2021/01/27 02:47:02;;;;;;;6.37;2.10;;;;;;;-0.98;81.07;100698.00;5055613;28;20213;-71
2021/01/27 02:49:36;;;;;;;5.20;2.60;;;;;;;-0.96;81.20;100697.13;5055658;28;20245;-71
2021/01/27 02:52:13;;;;;;;5.07;2.10;;;;;;;-0.94;80.79;100694.47;5055638;28;20191;-71
2021/01/27 02:54:42;;;;;;;3.00;1.57;;;;;;;-0.89;81.00;100697.06;5056003;28;20207;-71
2021/01/27 02:57:18;;;;;;;6.20;2.00;;;;;;;-0.88;80.80;100690.94;5056033;28;20202;-71
2021/01/27 02:59:52;;;;;;;4.67;1.70;;;;;;;-0.84;80.81;100695.25;5054956;28;20190;-71
2021/01/27 03:02:22;;;;;;;5.50;2.00;;;;;;;-0.84;80.12;100696.13;5054942;28;20203;-71
2021/01/27 03:04:58;;;;;;;6.30;2.20;;;;;;;-0.87;80.53;100697.91;5055051;28;20660;-71
2021/01/27 03:07:24;;;;;;;8.00;2.40;;;;;;;-0.90;80.67;100692.69;5054876;28;20217;-71
2021/01/27 03:09:56;;;;;;;3.10;1.73;;;;;;;-0.79;80.14;100696.97;5054557;28;20179;-71
2021/01/27 03:12:21;;;;;;;3.23;1.93;;;;;;;-0.77;80.01;100689.09;5056236;28;20196;-70
2021/01/27 03:14:47;;;;;;;7.63;2.27;;;;;;;-0.78;80.09;100696.06;5054571;28;20179;-70
2021/01/27 03:17:15;;;;;;;6.33;2.77;;;;;;;-0.80;80.07;100697.84;5054222;28;20575;-70
2021/01/27 03:19:49;;;;;;;7.10;2.07;;;;;;;-0.81;79.90;100696.09;5054541;28;20186;-70
2021/01/27 03:22:15;;;;;;;3.73;2.03;;;;;;;-0.82;80.11;100694.38;5054354;28;20191;-70
2021/01/27 03:24:51;;;;;;;4.47;2.13;;;;;;;-0.79;80.06;100696.09;5054181;28;20171;-70
2021/01/27 03:27:22;;;;;;;7.23;2.60;;;;;;;-0.79;79.67;100693.47;5054243;28;20164;-70
2021/01/27 03:29:52;;;;;;;5.40;2.53;;;;;;;-0.85;79.96;100698.78;5054205;28;20156;-70
2021/01/27 03:32:39;;;;;;;3.37;1.97;;;;;;;-0.90;80.13;100698.81;5054190;28;20286;-71
2021/01/27 03:35:09;;;;;;;6.87;2.57;;;;;;;-0.91;80.11;100702.31;5056218;28;20600;-71
2021/01/27 03:37:43;;;;;;;5.03;3.03;;;;;;;-1.00;80.35;100699.78;5054554;28;20192;-71
2021/01/27 03:40:12;;;;;;;6.60;2.43;;;;;;;-1.09;80.71;100698.09;5055841;28;20611;-71
2021/01/27 03:42:45;;;;;;;6.57;2.20;;;;;;;-1.18;80.94;100694.66;5054691;28;20634;-70
2021/01/27 03:45:13;;;;;;;8.97;3.13;;;;;;;-1.29;81.18;100699.97;5037240;28;20660;-71
2021/01/27 03:47:54;;;;;;;4.20;2.63;;;;;;;-1.31;81.49;100697.38;5053684;28;20178;-70
2021/01/27 03:50:21;;;;;;;3.67;2.43;;;;;;;-1.45;81.85;100691.38;5055196;28;20290;-70
2021/01/27 03:53:18;;;;;;;5.40;3.47;;;;;;;-1.42;81.83;100685.25;5036915;28;20182;-70
2021/01/27 03:55:58;;;;;;;9.70;3.53;;;;;;;-1.38;82.04;100702.66;5049431;28;20356;-70
2021/01/27 03:58:33;;;;;;;9.23;3.63;;;;;;;-1.33;81.73;100691.28;5054027;28;20164;-70
2021/01/27 04:01:04;;;;;;;7.37;3.87;;;;;;;-1.30;81.48;100693.88;5053449;28;20198;-70
2021/01/27 04:03:29;;;;;;;10.20;4.23;;;;;;;-1.21;81.34;100694.69;5056639;28;20258;-70
2021/01/27 04:05:55;;;;;;;6.97;4.10;;;;;;;-1.12;80.51;100690.25;5053639;28;20265;-70
2021/01/27 04:08:20;;;;;;;7.30;4.13;;;;;;;-1.05;80.17;100693.72;5053987;28;20176;-70
2021/01/27 04:10:45;;;;;;;6.77;4.33;;;;;;;-1.00;79.91;100687.53;5052973;28;20196;-71
2021/01/27 04:13:11;;;;;;;6.27;4.40;;;;;;;-1.00;80.11;100695.41;5056288;28;20181;-72
2021/01/27 04:15:36;;;;;;;10.00;5.17;;;;;;;-0.95;79.84;100690.13;5054524;28;20675;-72
2021/01/27 04:18:02;;;;;;;8.67;5.03;;;;;;;-0.93;79.48;100690.97;5055727;28;20225;-71
2021/01/27 04:20:28;;;;;;;8.33;5.63;;;;;;;-0.94;79.84;100691.88;5056660;28;20194;-71
2021/01/27 04:22:53;;;;;;;11.77;5.50;;;;;;;-0.93;79.39;100693.59;5055969;28;20171;-72
2021/01/27 04:25:19;;;;;;;8.07;5.73;;;;;;;-0.95;79.88;100698.84;5056385;28;20168;-71
2021/01/27 04:27:44;;;;;;;8.33;5.70;;;;;;;-0.96;79.54;100699.75;5055923;28;20174;-71
2021/01/27 04:30:12;;;;;;;13.60;6.20;;;;;;;-0.96;79.28;100694.50;5053512;28;20228;-71
2021/01/27 04:32:37;;;;;;;13.27;7.07;;;;;;;-0.90;79.36;100693.56;5054676;28;20183;-70
2021/01/27 04:35:04;;;;;;;13.10;6.33;;;;;;;-0.91;79.19;100691.84;5054230;28;20175;-70
2021/01/27 04:37:29;;;;;;;11.70;7.00;;;;;;;-0.88;78.91;100694.44;5053706;28;20239;-70
2021/01/27 04:39:55;;;;;;;7.63;5.90;;;;;;;-0.97;79.12;100690.13;5054882;28;20167;-71
2021/01/27 04:42:24;;;;;;;10.90;5.97;;;;;;;-1.01;79.14;100693.66;5054361;28;20207;-70
2021/01/27 04:44:52;;;;;;;8.97;5.77;;;;;;;-0.90;78.81;100690.09;5053580;28;20176;-70
2021/01/27 04:47:41;;;;;;;10.67;6.10;;;;;;;-0.89;78.66;100681.34;5052902;28;20213;-70
2021/01/27 04:50:13;;;;;;;8.70;5.50;;;;;;;-0.77;77.68;100678.59;5035788;28;20164;-71
2021/01/27 04:53:07;;;;;;;10.27;5.47;;;;;;;-0.82;77.58;100683.88;5052826;28;20187;-70
2021/01/27 04:56:06;;;;;;;11.17;5.97;;;;;;;-0.84;78.17;100687.41;5052253;28;20227;-69
2021/01/27 04:58:59;;;;;;;16.53;6.60;;;;;;;-0.77;78.01;100683.84;5059204;28;20160;-70
2021/01/27 05:01:51;;;;;;;10.03;5.70;;;;;;;-0.67;77.36;100680.28;5054332;28;20187;-69
2021/01/27 05:04:27;;;;;;;10.50;6.17;;;;;;;-0.69;77.85;100674.19;5052712;28;20152;-69
2021/01/27 05:07:01;;;;;;;8.10;5.23;;;;;;;-0.65;77.72;100675.88;5052604;28;20650;-70
2021/01/27 05:09:42;;;;;;;11.10;6.30;;;;;;;-0.62;77.63;100668.00;5052663;28;20160;-71
2021/01/27 05:12:09;;;;;;;14.53;6.00;;;;;;;-0.60;77.13;100674.09;5035915;28;20191;-70
2021/01/27 05:14:35;;;;;;;9.87;5.87;;;;;;;-0.59;77.34;100665.34;5036507;28;20171;-71
2021/01/27 05:17:06;;;;;;;11.57;6.40;;;;;;;-0.53;76.74;100662.66;5052448;28;20309;-70
2021/01/27 05:19:32;;;;;;;9.73;6.10;;;;;;;-0.53;76.68;100654.78;5052825;28;20584;-70
2021/01/27 05:21:58;;;;;;;10.53;5.70;;;;;;;-0.51;76.45;100657.38;5053303;28;20270;-70
2021/01/27 05:24:24;;;;;;;8.43;5.93;;;;;;;-0.50;76.47;100652.13;5052657;28;20208;-70
2021/01/27 05:27:12;;;;;;;8.73;5.20;;;;;;;-0.42;75.61;100647.66;5053728;28;20168;-71
2021/01/27 05:29:41;;;;;;;7.00;4.60;;;;;;;-0.36;75.04;100644.13;5052479;28;20581;-70
2021/01/27 05:32:11;;;;;;;10.07;5.60;;;;;;;-0.37;75.07;100643.25;5052378;28;20192;-70
2021/01/27 05:34:51;;;;;;;8.37;5.07;;;;;;;-0.38;75.24;100648.50;5052243;28;20191;-70
2021/01/27 05:37:26;;;;;;;6.70;4.43;;;;;;;-0.45;75.76;100638.97;5052923;28;20180;-70
2021/01/27 05:40:09;;;;;;;11.03;4.90;;;;;;;-0.51;76.42;100639.91;5053499;28;20184;-70
2021/01/27 05:42:36;;;;;;;10.77;5.47;;;;;;;-0.57;76.81;100639.97;5076709;22;20234;-73
2021/01/27 05:45:28;;;;;;;8.87;5.27;;;;;;;-0.60;77.75;100636.50;5055702;28;20265;-73
2021/01/27 05:47:54;;;;;;;7.97;5.20;;;;;;;-0.64;77.69;100640.94;5055838;28;20168;-72
2021/01/27 05:50:30;;;;;;;10.67;5.63;;;;;;;-0.65;77.71;100645.31;5055788;28;20183;-73
2021/01/27 05:53:09;;;;;;;9.43;5.57;;;;;;;-0.65;78.09;100644.44;5035253;28;20183;-73
2021/01/27 05:55:35;;;;;;;9.27;4.67;;;;;;;-0.66;78.13;100643.56;5036035;28;20214;-73
2021/01/27 05:58:00;;;;;;;8.10;5.30;;;;;;;-0.66;78.16;100648.81;5017820;28;20212;-73
2021/01/27 06:00:28;;;;;;;9.80;5.83;;;;;;;-0.56;77.94;100643.47;5036963;28;20219;-73
2021/01/27 06:02:55;;;;;;;10.30;5.90;;;;;;;-0.51;78.05;100639.03;5035761;28;20200;-73
2021/01/27 06:05:34;;;;;;;9.80;6.37;;;;;;;-0.51;78.25;100639.03;5034410;28;20172;-72
2021/01/27 06:08:14;;;;;;;9.20;6.30;;;;;;;-0.45;78.43;100642.44;5034721;28;20184;-72
2021/01/27 06:10:41;;;;;;;12.57;7.30;;;;;;;-0.52;78.83;100640.78;5036022;28;20183;-73
2021/01/27 06:13:28;;;;;;;9.17;6.57;;;;;;;-0.60;79.28;100631.28;5034640;28;20643;-73
2021/01/27 06:15:54;;;;;;;14.50;7.10;;;;;;;-0.64;79.98;100640.94;5017804;28;20571;-73
2021/01/27 06:18:31;;;;;;;11.97;7.77;;;;;;;-0.64;79.74;100636.56;5033877;28;20172;-73
2021/01/27 06:21:26;;;;;;;12.93;7.90;;;;;;;-0.70;80.19;100635.75;5033196;28;20198;-74
2021/01/27 06:24:24;;;;;;;10.67;7.53;;;;;;;-0.81;80.69;100641.06;5031773;28;20575;-73
2021/01/27 06:27:06;;;;;;;12.80;7.00;;;;;;;-0.80;81.13;100634.94;5018349;28;20214;-73
2021/01/27 06:30:18;;;;;;;13.57;7.73;;;;;;;-0.81;81.52;100634.97;5017025;28;20210;-72
2021/01/27 06:33:01;;;;;;;13.13;7.23;;;;;;;-0.81;81.53;100641.06;5034023;28;20196;-73
2021/01/27 06:35:53;;;;;;;13.47;8.07;;;;;;;-0.82;81.44;100628.00;5020953;28;20263;-73
2021/01/27 06:38:53;;;;;;;13.07;8.83;;;;;;;-0.86;81.77;100642.00;5020499;28;20169;-73
2021/01/27 06:41:45;;;;;;;16.40;7.57;;;;;;;-0.80;81.63;100637.56;5037707;28;20783;-73
2021/01/27 06:44:21;;;;;;;14.63;8.37;;;;;;;-0.81;81.64;100633.22;5036996;28;20537;-73
2021/01/27 06:47:02;;;;;;;16.80;9.37;;;;;;;-0.85;81.92;100646.38;5036912;28;20163;-73
2021/01/27 06:49:52;;;;;;;12.27;9.07;;;;;;;-0.91;82.07;100636.81;5036402;28;20658;-73
2021/01/27 06:52:43;;;;;;;15.13;10.57;;;;;;;-0.97;82.42;100648.22;5035338;28;20318;-73
2021/01/27 06:55:17;;;;;;;15.77;9.47;;;;;;;-0.97;83.07;100639.50;5034561;28;20250;-67
2021/01/27 06:58:05;;;;;;;16.93;10.43;;;;;;;-0.98;82.90;100637.75;5034161;28;20191;-66
2021/01/27 07:00:40;;;;;;;18.30;10.37;;;;;;;-0.96;82.77;100643.84;5034242;28;20165;-67
2021/01/27 07:03:34;;;;;;;15.77;10.13;;;;;;;-0.87;82.70;100638.53;5017680;28;20169;-67
2021/01/27 07:06:02;;;;;;;19.50;10.33;;;;;;;-0.89;82.79;100642.91;5017529;28;20192;-69
2021/01/27 07:08:50;;;;;;;19.97;10.10;;;;;;;-0.92;82.87;100639.44;5035582;28;20186;-68
2021/01/27 07:11:27;;;;;;;15.77;9.90;;;;;;;-0.84;82.73;100645.47;5034078;28;20668;-68
2021/01/27 07:14:06;;;;;;;15.30;9.73;;;;;;;-0.84;82.76;100642.84;5034023;28;20535;-68
2021/01/27 07:17:08;;;;;;;16.27;9.73;;;;;;;-0.83;82.58;100644.59;5035384;28;20188;-68
2021/01/27 07:20:02;;;;;;;17.07;10.27;;;;;;;-0.78;82.41;100646.28;5035610;28;20622;-69
2021/01/27 07:22:58;;;;;;;19.83;10.57;;;;;;;-0.75;82.42;100645.38;5017399;28;20250;-69
2021/01/27 07:25:42;;;;;;;17.30;9.87;;;;;;;-0.69;82.15;100643.59;5034977;28;20184;-69
2021/01/27 07:28:13;;;;;;;14.60;9.33;;;;;;;-0.76;82.16;100635.78;5034973;28;20179;-68
2021/01/27 07:30:44;;;;;;;15.27;10.03;;;;;;;-0.71;82.50;100641.88;5033787;28;20161;-68
2021/01/27 07:33:15;;;;;;;16.50;10.63;;;;;;;-0.69;82.54;100637.50;5016994;28;20168;-69
2021/01/27 07:35:58;;;;;;;15.37;10.03;;;;;;;-0.72;82.23;100637.53;5033820;28;20176;-68
2021/01/27 07:38:27;;;;;;;17.43;9.80;;;;;;;-0.74;82.86;100634.03;5034762;28;20179;-69
2021/01/27 07:40:57;;;;;;;21.53;11.73;;;;;;;-0.76;82.95;100634.03;5033374;28;20275;-69
2021/01/27 07:43:31;;;;;;;19.13;10.33;;;;;;;-0.75;83.01;100627.03;5035390;28;20165;-69
2021/01/27 07:45:58;;;;;;;22.10;11.93;;;;;;;-0.72;82.82;100650.63;5016781;28;20168;-69
2021/01/27 07:48:37;;;;;;;20.60;12.00;;;;;;;-0.65;82.62;100644.44;5016720;28;20555;-69
2021/01/27 07:51:08;;;;;;;20.10;12.00;;;;;;;-0.66;83.06;100642.69;5033807;28;20195;-69
2021/01/27 07:53:45;;;;;;;24.53;14.37;;;;;;;-0.64;83.09;100638.31;5033164;28;20656;-68
2021/01/27 07:56:24;;;;;;;21.83;12.10;;;;;;;-0.61;82.86;100651.38;5033553;28;20200;-69
2021/01/27 07:59:07;;;;;;;20.03;11.70;;;;;;;-0.70;83.44;100651.47;5033108;28;20195;-68
2021/01/27 08:01:44;;;;;;;22.47;12.53;;;;;;;-0.69;83.17;100646.22;5016584;28;20203;-68
2021/01/27 08:04:22;;;;;;;22.03;12.60;;;;;;;-0.69;83.15;100642.72;5033004;28;20156;-69
2021/01/27 08:06:50;;;;;;;25.90;13.60;;;;;;;-0.79;84.04;100631.44;5033374;28;20157;-69
2021/01/27 08:09:27;;;;;;;26.47;12.33;;;;;;;-0.79;84.12;100633.19;5032916;28;20658;-69
2021/01/27 08:12:12;;;;;;;28.33;14.90;;;;;;;-0.81;83.96;100627.97;5016464;28;20211;-69
2021/01/27 08:15:09;;;;;;;22.63;12.13;;;;;;;-0.60;82.77;100642.63;5032906;28;20171;-69
2021/01/27 08:17:44;;;;;;;23.37;12.00;;;;;;;-0.61;83.23;100656.63;5033912;28;20188;-69
2021/01/27 08:20:27;;;;;;;20.63;11.33;;;;;;;-0.62;83.25;100657.50;5034236;28;20194;-69
2021/01/27 08:22:58;;;;;;;18.70;10.63;;;;;;;-0.61;83.37;100654.00;5033804;28;20196;-69
2021/01/27 08:25:49;;;;;;;19.53;11.70;;;;;;;-0.72;84.41;100658.50;5032611;28;20623;-69
2021/01/27 08:28:22;;;;;;;23.07;11.63;;;;;;;-0.65;84.00;100650.53;5033802;28;20302;-69
2021/01/27 08:31:06;;;;;;;19.03;10.90;;;;;;;-0.55;83.72;100655.69;5032446;28;20251;-69
2021/01/27 08:33:47;;;;;;;24.20;12.87;;;;;;;-0.63;83.92;100651.41;5033671;28;20651;-69
2021/01/27 08:36:30;;;;;;;21.30;11.87;;;;;;;-0.60;84.27;100652.25;5032377;28;20196;-69
2021/01/27 08:38:55;;;;;;;25.27;12.57;;;;;;;-0.57;83.71;100646.97;5033880;28;20184;-69
2021/01/27 08:41:52;;;;;;;22.07;10.43;;;;;;;-0.64;84.48;100652.28;5033388;28;20592;-69
2021/01/27 08:44:20;;;;;;;25.33;12.47;;;;;;;-0.50;84.18;100644.25;4999305;28;20618;-69
2021/01/27 08:46:46;;;;;;;22.47;12.17;;;;;;;-0.45;84.15;100642.44;5033475;28;20191;-69
2021/01/27 08:49:12;;;;;;;25.87;13.60;;;;;;;-0.54;84.62;100642.56;5032192;28;20267;-69
2021/01/27 08:51:44;;;;;;;25.43;13.00;;;;;;;-0.44;83.98;100636.31;5032111;28;20282;-69
2021/01/27 08:54:39;;;;;;;26.60;13.40;;;;;;;-0.44;83.90;100627.59;5015905;28;20176;-69
2021/01/27 08:57:21;;;;;;;28.20;13.43;;;;;;;-0.36;83.67;100626.63;5031651;28;20254;-69
2021/01/27 08:59:55;;;;;;;27.83;13.60;;;;;;;-0.46;84.15;100624.13;5033368;28;20230;-69
2021/01/27 09:02:59;;;;;;;29.93;15.20;;;;;;;-0.45;84.77;100620.59;5031862;28;20231;-69
2021/01/27 09:05:24;;;;;;;26.33;13.80;;;;;;;-0.35;84.36;100623.13;5001795;28;20188;-69
2021/01/27 09:08:04;;;;;;;26.63;13.83;;;;;;;-0.30;84.22;100619.56;5031839;28;20540;-69
2021/01/27 09:10:41;;;;;;;27.33;14.13;;;;;;;-0.21;83.66;100620.31;5015401;28;20188;-69
2021/01/27 09:13:28;;;;;;;27.17;14.20;;;;;;;-0.21;83.65;100619.47;5031968;28;20172;-68
2021/01/27 09:15:57;;;;;;;24.97;13.70;;;;;;;-0.18;83.50;100625.53;5031972;28;20552;-68
2021/01/27 09:18:22;;;;;;;33.00;17.97;;;;;;;-0.29;84.02;100618.69;5015378;28;20177;-69
2021/01/27 09:20:47;;;;;;;37.83;17.87;;;;;;;-0.18;83.23;100622.03;5032983;28;20176;-69
2021/01/27 09:23:16;;;;;;;38.63;18.00;;;;;;;-0.23;83.49;100618.63;5015202;28;20548;-69
2021/01/27 09:25:44;;;;;;;40.83;17.63;;;;;;;-0.19;83.56;100615.06;5032065;28;20204;-69
2021/01/27 09:28:10;;;;;;;37.63;18.23;;;;;;;-0.09;83.17;100608.81;5031800;28;20174;-69
2021/01/27 09:30:36;;;;;;;33.90;19.77;;;;;;;-0.13;82.70;100618.47;5032798;28;20185;-69
2021/01/27 09:33:12;;;;;;;31.90;16.23;;;;;;;-0.14;83.55;100618.50;5031741;28;20188;-69
2021/01/27 09:35:38;;;;;;;39.63;19.10;;;;;;;-0.18;83.43;100615.03;5031869;28;20179;-69
2021/01/27 09:38:17;;;;;;;34.53;16.47;;;;;;;-0.12;83.73;100622.81;5031604;28;20185;-69
2021/01/27 09:41:05;;;;;;;33.73;16.57;;;;;;;0.07;83.20;100622.59;5031241;28;20219;-69
2021/01/27 09:43:46;;;;;;;31.37;17.17;;;;;;;0.13;82.68;100623.38;5015138;28;20269;-69
2021/01/27 09:46:32;;;;;;;29.70;15.83;;;;;;;0.20;82.78;100632.03;5031606;28;20169;-69
2021/01/27 09:49:02;;;;;;;34.83;18.33;;;;;;;0.31;81.85;100632.75;5015351;28;20174;-69
2021/01/27 09:51:28;;;;;;;29.93;16.23;;;;;;;0.28;81.96;100643.28;5031452;28;20292;-69
2021/01/27 09:53:59;;;;;;;30.40;18.13;;;;;;;0.26;81.38;100642.44;5014911;28;20192;-69
2021/01/27 09:56:25;;;;;;;33.90;18.03;;;;;;;0.44;80.87;100647.47;5014963;28;20202;-69
2021/01/27 09:58:51;;;;;;;32.40;19.43;;;;;;;0.39;80.69;100657.16;5032619;28;20184;-69
2021/01/27 10:01:18;;;;;;;33.93;16.73;;;;;;;0.48;80.36;100648.28;5031279;28;20197;-69
2021/01/27 10:03:45;;;;;;;25.20;14.47;;;;;;;0.40;81.02;100644.91;5014935;28;20184;-69
2021/01/27 10:06:40;;;;;;;30.23;16.77;;;;;;;0.46;80.84;100661.44;5031417;28;20179;-69
2021/01/27 10:09:20;;;;;;;30.87;17.63;;;;;;;0.51;80.23;100648.22;5033506;28;20200;-69
2021/01/27 10:11:47;;;;;;;30.67;18.03;;;;;;;0.55;80.55;100649.91;5019057;28;20200;-71
2021/01/27 10:14:19;;;;;;;28.00;17.40;;;;;;;0.53;80.30;100659.56;5018685;28;20659;-71
2021/01/27 10:16:47;;;;;;;31.53;18.27;;;;;;;0.62;79.71;100647.16;5018825;28;20205;-71
2021/01/27 10:19:13;;;;;;;34.33;18.63;;;;;;;0.63;79.86;100643.66;5035463;28;20715;-71
2021/01/27 10:21:43;;;;;;;29.80;17.43;;;;;;;0.50;80.22;100634.22;5034837;28;20205;-71
2021/01/27 10:24:08;;;;;;;30.47;17.73;;;;;;;0.52;80.60;100636.84;5034797;28;20642;-71
2021/01/27 10:26:41;;;;;;;33.73;19.13;;;;;;;0.58;80.40;100628.84;5018848;28;20189;-71
2021/01/27 10:29:15;;;;;;;31.73;17.73;;;;;;;0.61;79.85;100627.03;5035209;28;20292;-71
2021/01/27 10:31:42;;;;;;;32.97;18.10;;;;;;;0.44;80.99;100622.94;5036092;28;20200;-70
2021/01/27 10:34:07;;;;;;;31.17;17.70;;;;;;;0.54;80.17;100633.28;5034847;28;20223;-71
2021/01/27 10:36:43;;;;;;;31.13;17.80;;;;;;;0.68;79.67;100621.69;5018435;28;20213;-71
2021/01/27 10:39:18;;;;;;;32.53;17.80;;;;;;;0.49;80.02;100629.00;5035069;28;20216;-71
2021/01/27 10:41:45;;;;;;;28.70;16.13;;;;;;;0.52;79.65;100628.94;5018121;28;20213;-71
2021/01/27 10:44:22;;;;;;;31.40;18.13;;;;;;;0.45;80.44;100615.06;5017846;28;20185;-72
2021/01/27 10:46:50;;;;;;;34.03;20.10;;;;;;;0.61;79.48;100626.19;5034549;28;20175;-71
2021/01/27 10:49:15;;;;;;;29.90;18.13;;;;;;;0.57;79.95;100616.63;5018075;28;20178;-71
2021/01/27 10:51:42;;;;;;;35.03;18.20;;;;;;;0.54;80.08;100612.28;5017771;28;20199;-71
2021/01/27 10:54:08;;;;;;;38.63;19.70;;;;;;;0.56;78.88;100617.50;5018011;28;20208;-71
2021/01/27 10:56:33;;;;;;;30.90;17.80;;;;;;;0.71;79.30;100621.63;5017754;28;20239;-71
2021/01/27 10:58:58;;;;;;;36.87;19.43;;;;;;;0.66;78.83;100616.47;5034358;28;20650;-71
2021/01/27 11:01:24;;;;;;;32.90;18.43;;;;;;;0.77;78.29;100617.19;5034068;28;20272;-71
2021/01/27 11:03:49;;;;;;;32.17;18.37;;;;;;;1.02;78.27;100604.47;5035494;28;20189;-71
2021/01/27 11:06:15;;;;;;;36.53;20.50;;;;;;;1.04;77.55;100604.44;5034294;28;20228;-71
2021/01/27 11:08:42;;;;;;;32.20;18.43;;;;;;;1.11;77.69;100601.69;5034465;28;20178;-71
2021/01/27 11:11:08;;;;;;;31.07;18.63;;;;;;;1.18;77.07;100602.47;5034055;28;20206;-71
2021/01/27 11:13:35;;;;;;;33.73;20.10;;;;;;;1.11;77.48;100593.78;5034036;28;20270;-71
2021/01/27 11:16:06;;;;;;;32.70;19.50;;;;;;;1.16;77.90;100594.59;5033813;28;20296;-71
2021/01/27 11:18:31;;;;;;;30.67;19.10;;;;;;;1.05;77.92;100588.66;5033975;28;20536;-72
2021/01/27 11:20:56;;;;;;;34.37;20.03;;;;;;;1.19;77.18;100583.16;5034878;28;20204;-71
2021/01/27 11:23:22;;;;;;;31.60;18.70;;;;;;;1.48;76.78;100587.84;5017455;28;20601;-72
2021/01/27 11:25:49;;;;;;;27.67;16.97;;;;;;;1.76;76.26;100583.75;5033743;28;20211;-72
2021/01/27 11:28:14;;;;;;;28.00;17.30;;;;;;;2.29;73.68;100580.88;5033858;28;20175;-71
2021/01/27 11:30:40;;;;;;;29.07;18.43;;;;;;;2.59;71.99;100584.53;5033595;28;20185;-71
2021/01/27 11:33:05;;;;;;;29.57;18.40;;;;;;;3.06;70.84;100581.59;5034939;28;20180;-70
2021/01/27 11:35:30;;;;;;;28.10;17.50;;;;;;;2.44;71.86;100577.88;5017158;28;20647;-71
2021/01/27 11:37:56;;;;;;;31.70;19.97;;;;;;;2.56;72.04;100579.34;5016985;28;20208;-71
2021/01/27 11:40:23;;;;;;;32.40;19.53;;;;;;;2.46;72.48;100569.03;5034832;28;20201;-71
2021/01/27 11:42:49;;;;;;;29.53;17.77;;;;;;;2.15;73.29;100570.63;5034808;28;20203;-68
2021/01/27 11:45:15;;;;;;;35.30;19.53;;;;;;;2.14;73.69;100569.78;5034638;28;20202;-69
2021/01/27 11:47:41;;;;;;;28.97;18.90;;;;;;;2.14;74.33;100572.41;5033684;28;20165;-68